Time;durP1;ratioP1;P1;durP2;ratioP2;P2;SDS_P1;SDS_P2;PMS_P1;PMS_P2;Temp;Humidity;BMP_temperature;BMP_pressure;BME280_temperature;BME280_humidity;BME280_pressure;Samples;Min_cycle;Max_cycle;Signal;HPM_P1;HPM_P2
2021/12/28 00:01:10;;;;;;;13.93;11.00;;;;;22.00;98554.00;;;;2078912;28;20217;-47
2021/12/28 00:02:11;;;;;;;11.23;10.02;;;;;21.90;98556.00;;;;2078966;28;20222;-49
2021/12/28 00:03:11;;;;;;;13.97;11.60;;;;;21.90;98551.00;;;;2083875;28;20217;-48
2021/12/28 00:04:12;;;;;;;14.07;12.17;;;;;21.80;98555.00;;;;2087400;28;20228;-49
2021/12/28 00:05:12;;;;;;;13.20;11.20;;;;;21.60;98561.00;;;;2087486;28;20219;-48
2021/12/28 00:06:14;;;;;;;13.70;11.93;;;;;21.60;98555.00;;;;2088036;28;20451;-48
2021/12/28 00:07:14;;;;;;;11.93;10.50;;;;;21.60;98483.00;;;;2088000;28;20217;-49
2021/12/28 00:08:16;;;;;;;13.90;11.27;;;;;21.60;98558.00;;;;2087916;28;20266;-48
2021/12/28 00:09:16;;;;;;;14.00;10.93;;;;;21.60;98550.00;;;;2087784;28;20216;-48
2021/12/28 00:10:18;;;;;;;13.83;11.17;;;;;21.80;98556.00;;;;2087444;28;20225;-48
2021/12/28 00:11:18;;;;;;;12.63;11.32;;;;;21.90;98556.00;;;;2087441;28;20300;-49
2021/12/28 00:12:18;;;;;;;13.33;10.50;;;;;22.00;98553.00;;;;2087899;28;20201;-48
2021/12/28 00:13:19;;;;;;;12.53;10.70;;;;;22.00;98552.00;;;;2088108;28;20263;-48
2021/12/28 00:14:22;;;;;;;12.20;10.90;;;;;22.00;98553.00;;;;2087932;28;20207;-49
2021/12/28 00:18:02;;;;;;;14.77;9.82;;;;;22.00;98548.00;;;;2087744;28;20204;-48
2021/12/28 00:19:02;;;;;;;11.90;9.98;;;;;22.00;98544.00;;;;2088049;28;20220;-48
2021/12/28 00:20:03;;;;;;;12.40;9.07;;;;;21.90;98546.00;;;;2087800;28;20236;-49
2021/12/28 00:21:05;;;;;;;11.53;8.40;;;;;21.90;98541.00;;;;2086971;28;20240;-48
2021/12/28 00:22:05;;;;;;;10.35;8.50;;;;;22.00;98539.00;;;;2086460;28;20216;-48
2021/12/28 00:23:21;;;;;;;9.70;8.70;;;;;21.90;98540.00;;;;2087921;28;20316;-48
2021/12/28 00:24:21;;;;;;;9.10;8.20;;;;;21.90;98541.00;;;;2087712;28;20687;-48
2021/12/28 00:25:22;;;;;;;10.40;7.93;;;;;21.90;98534.00;;;;2086559;28;20209;-48
2021/12/28 00:26:23;;;;;;;9.73;8.60;;;;;21.90;98541.00;;;;2087145;28;20212;-48
2021/12/28 00:27:24;;;;;;;9.43;7.55;;;;;21.90;98539.00;;;;2087568;28;20221;-48
2021/12/28 00:28:24;;;;;;;12.10;9.00;;;;;21.90;98535.00;;;;2087713;28;20217;-49
2021/12/28 00:29:25;;;;;;;10.33;7.77;;;;;21.90;98538.00;;;;2077706;28;20221;-48
2021/12/28 00:30:25;;;;;;;10.97;8.33;;;;;21.90;98534.00;;;;2086269;28;20213;-48
2021/12/28 00:31:26;;;;;;;8.90;8.00;;;;;21.90;98526.00;;;;2087093;28;20217;-48
2021/12/28 00:32:26;;;;;;;10.07;7.50;;;;;21.90;98534.00;;;;2087611;28;20212;-48
2021/12/28 00:33:26;;;;;;;7.90;7.10;;;;;21.90;98535.00;;;;2087160;28;20213;-48
2021/12/28 00:34:27;;;;;;;10.30;7.87;;;;;21.90;98528.00;;;;2087068;28;20248;-48
2021/12/28 00:35:29;;;;;;;7.97;7.17;;;;;21.90;98534.00;;;;2087844;28;20689;-48
2021/12/28 00:36:29;;;;;;;9.15;7.15;;;;;21.90;98529.00;;;;2086767;28;20212;-48
2021/12/28 00:37:30;;;;;;;7.17;6.33;;;;;21.80;98523.00;;;;2087004;28;20596;-49
2021/12/28 00:38:32;;;;;;;9.80;7.10;;;;;21.80;98522.00;;;;2087355;28;20613;-49
2021/12/28 00:39:32;;;;;;;8.13;6.70;;;;;21.80;98522.00;;;;2087354;28;20224;-49
2021/12/28 00:40:33;;;;;;;10.27;7.63;;;;;21.90;98525.00;;;;2086816;28;20221;-48
2021/12/28 00:41:33;;;;;;;8.43;6.93;;;;;21.80;98511.00;;;;2087093;28;20239;-48
2021/12/28 00:42:33;;;;;;;9.80;6.50;;;;;21.80;98510.00;;;;2087754;28;20236;-49
2021/12/28 00:43:34;;;;;;;7.80;6.30;;;;;21.80;98517.00;;;;2087492;28;20296;-48
2021/12/28 00:44:34;;;;;;;8.40;6.50;;;;;21.80;98512.00;;;;2087771;28;20215;-49
2021/12/28 00:45:35;;;;;;;7.73;6.20;;;;;21.90;98510.00;;;;2087815;28;20216;-48
2021/12/28 00:46:35;;;;;;;7.33;6.37;;;;;21.80;98510.00;;;;2087646;28;20223;-49
2021/12/28 00:47:35;;;;;;;7.20;6.00;;;;;21.80;98506.00;;;;2087631;28;20281;-49
2021/12/28 00:48:36;;;;;;;7.53;6.10;;;;;21.80;98505.00;;;;2085604;28;20259;-48
2021/12/28 00:49:37;;;;;;;7.57;6.30;;;;;21.70;98505.00;;;;2079534;28;20217;-48
2021/12/28 00:50:37;;;;;;;7.90;6.43;;;;;21.80;98497.00;;;;2078650;28;20320;-48
2021/12/28 00:51:37;;;;;;;8.70;6.20;;;;;21.80;98495.00;;;;2079389;28;20225;-48
2021/12/28 00:52:38;;;;;;;6.77;6.07;;;;;21.80;98493.00;;;;2078380;28;20772;-48
2021/12/28 00:53:38;;;;;;;6.53;5.70;;;;;21.80;98493.00;;;;2076345;28;20275;-48
2021/12/28 00:54:38;;;;;;;7.57;5.30;;;;;21.80;98486.00;;;;2078699;28;20213;-48
2021/12/28 00:55:39;;;;;;;7.83;6.10;;;;;21.80;98487.00;;;;2079437;28;20217;-49
2021/12/28 00:56:39;;;;;;;6.70;6.00;;;;;21.70;98493.00;;;;2079432;28;20214;-48
2021/12/28 00:57:40;;;;;;;6.80;5.60;;;;;21.70;98496.00;;;;2079227;28;20275;-48
2021/12/28 00:58:40;;;;;;;8.20;6.00;;;;;21.70;98498.00;;;;2079159;28;20745;-49
2021/12/28 00:59:40;;;;;;;6.77;5.47;;;;;21.70;98495.00;;;;2077038;28;20217;-48
2021/12/28 01:00:41;;;;;;;6.97;4.90;;;;;21.80;98493.00;;;;2078301;28;20222;-48
2021/12/28 01:01:41;;;;;;;6.50;5.07;;;;;21.70;98484.00;;;;2079318;28;20225;-49
2021/12/28 01:02:41;;;;;;;6.43;5.43;;;;;21.70;98494.00;;;;2079541;28;20303;-48
2021/12/28 01:03:42;;;;;;;6.30;5.70;;;;;21.70;98488.00;;;;2079031;28;20247;-48
2021/12/28 01:04:42;;;;;;;6.63;4.73;;;;;21.70;98490.00;;;;2078697;28;20217;-48
2021/12/28 01:05:43;;;;;;;6.47;5.27;;;;;21.70;98495.00;;;;2078514;28;20245;-48
2021/12/28 01:06:43;;;;;;;5.77;4.70;;;;;21.70;98481.00;;;;2079110;28;20221;-48
2021/12/28 01:07:43;;;;;;;6.23;4.93;;;;;21.70;98489.00;;;;2079332;28;20283;-48
2021/12/28 01:08:44;;;;;;;5.80;5.13;;;;;21.70;98488.00;;;;2079155;28;20289;-49
2021/12/28 01:09:45;;;;;;;6.93;4.80;;;;;21.70;98484.00;;;;2078554;28;20698;-48
2021/12/28 01:10:48;;;;;;;6.03;5.22;;;;;21.70;98484.00;;;;2077369;28;20217;-48
2021/12/28 01:11:49;;;;;;;6.03;5.10;;;;;21.70;98488.00;;;;2078854;28;20678;-48
2021/12/28 01:12:49;;;;;;;5.87;4.70;;;;;21.70;98477.00;;;;2079411;28;20215;-48
2021/12/28 01:13:50;;;;;;;4.97;4.43;;;;;21.70;98481.00;;;;2078849;28;20217;-54
2021/12/28 01:14:50;;;;;;;5.73;5.07;;;;;21.70;98485.00;;;;2079034;28;20292;-52
2021/12/28 01:15:51;;;;;;;5.83;4.50;;;;;21.60;98478.00;;;;2079118;28;20209;-49
2021/12/28 01:16:51;;;;;;;5.60;4.63;;;;;21.70;98484.00;;;;2078415;28;20213;-49
2021/12/28 01:17:51;;;;;;;6.40;4.40;;;;;21.60;98477.00;;;;2077138;28;20712;-49
2021/12/28 01:18:52;;;;;;;5.10;4.40;;;;;21.60;98482.00;;;;2079280;28;20629;-49
2021/12/28 01:19:52;;;;;;;5.60;4.93;;;;;21.60;98476.00;;;;2079237;28;20206;-49
2021/12/28 01:20:53;;;;;;;5.37;4.57;;;;;21.70;98395.00;;;;2078014;28;20233;-48
2021/12/28 01:21:53;;;;;;;4.47;4.07;;;;;21.70;98479.00;;;;2078520;28;20591;-48
2021/12/28 01:22:53;;;;;;;6.47;4.60;;;;;21.70;98475.00;;;;2078894;28;20298;-48
2021/12/28 01:23:54;;;;;;;5.33;4.13;;;;;21.70;98474.00;;;;2079144;28;20308;-49
2021/12/28 01:24:54;;;;;;;4.40;4.00;;;;;21.60;98476.00;;;;2079124;28;20216;-48
2021/12/28 01:25:54;;;;;;;6.10;4.40;;;;;21.70;98481.00;;;;2079105;28;20202;-48
2021/12/28 01:26:55;;;;;;;6.17;4.00;;;;;21.70;98480.00;;;;2079127;28;20213;-50
2021/12/28 01:27:55;;;;;;;5.00;4.00;;;;;21.60;98482.00;;;;2078423;28;20256;-48
2021/12/28 01:28:55;;;;;;;6.00;4.50;;;;;21.60;98473.00;;;;2079030;28;20740;-48
2021/12/28 01:29:56;;;;;;;5.30;4.57;;;;;21.60;98477.00;;;;2077881;28;20213;-49
2021/12/28 01:30:56;;;;;;;5.07;4.30;;;;;21.60;98478.00;;;;2078331;28;20217;-49
2021/12/28 01:31:56;;;;;;;4.97;4.17;;;;;21.60;98477.00;;;;2078612;28;20217;-49
2021/12/28 01:33:01;;;;;;;6.40;4.23;;;;;21.60;98475.00;;;;2078932;28;20214;-48
2021/12/28 01:34:01;;;;;;;4.90;4.18;;;;;21.60;98477.00;;;;2079158;28;20376;-48
2021/12/28 01:35:03;;;;;;;4.43;3.90;;;;;21.60;98479.00;;;;2078946;28;20682;-49
2021/12/28 01:36:03;;;;;;;4.25;3.60;;;;;21.60;98477.00;;;;2078672;28;20216;-49
2021/12/28 01:37:03;;;;;;;4.23;3.70;;;;;21.60;98478.00;;;;2077761;28;20214;-49
2021/12/28 01:38:04;;;;;;;4.53;4.00;;;;;21.60;98476.00;;;;2078617;28;20209;-48
2021/12/28 01:39:05;;;;;;;5.07;3.80;;;;;21.60;98479.00;;;;2078655;28;20217;-48
2021/12/28 01:40:07;;;;;;;4.30;3.40;;;;;21.50;98474.00;;;;2077918;28;20205;-49
2021/12/28 01:41:10;;;;;;;4.55;3.60;;;;;21.50;98479.00;;;;2076638;28;20704;-49
2021/12/28 01:42:10;;;;;;;4.18;3.55;;;;;21.60;98475.00;;;;2078544;28;20565;-48
2021/12/28 01:43:18;;;;;;;4.90;3.50;;;;;21.60;98481.00;;;;2078098;28;20217;-49
2021/12/28 01:44:19;;;;;;;4.72;3.40;;;;;21.60;98474.00;;;;2078080;28;20702;-48
2021/12/28 01:45:37;;;;;;;4.93;3.43;;;;;21.60;98481.00;;;;2077798;28;20214;-49
2021/12/28 01:46:38;;;;;;;4.10;3.38;;;;;21.60;98477.00;;;;2077842;28;20648;-49
2021/12/28 01:47:38;;;;;;;4.90;3.50;;;;;21.60;98480.00;;;;2078211;28;20233;-48
2021/12/28 01:48:40;;;;;;;3.67;3.20;;;;;21.60;98474.00;;;;2078848;28;20228;-48
2021/12/28 01:49:41;;;;;;;4.20;3.60;;;;;21.50;98480.00;;;;2078069;28;20225;-49
2021/12/28 01:50:41;;;;;;;4.40;3.40;;;;;21.50;98477.00;;;;2077565;28;20220;-48
2021/12/28 01:51:41;;;;;;;3.57;3.07;;;;;21.60;98482.00;;;;2078879;28;20682;-49
2021/12/28 01:52:42;;;;;;;3.80;3.40;;;;;21.50;98481.00;;;;2078993;28;20210;-49
2021/12/28 01:53:42;;;;;;;4.30;3.50;;;;;21.50;98480.00;;;;2078384;28;20272;-49
2021/12/28 01:54:42;;;;;;;3.90;3.10;;;;;21.50;98481.00;;;;2077901;28;20237;-49
2021/12/28 01:55:50;;;;;;;4.37;3.57;;;;;21.60;98478.00;;;;2078869;28;20217;-48
2021/12/28 01:56:51;;;;;;;3.30;2.78;;;;;21.60;98472.00;;;;2079403;28;20229;-48
2021/12/28 01:57:51;;;;;;;3.50;3.03;;;;;21.50;98476.00;;;;2087026;28;20208;-48
2021/12/28 01:58:52;;;;;;;3.57;3.00;;;;;21.50;98466.00;;;;2086269;28;20213;-49
2021/12/28 01:59:52;;;;;;;3.77;2.87;;;;;21.50;98465.00;;;;2086195;28;20208;-48
2021/12/28 02:00:53;;;;;;;4.00;2.43;;;;;21.50;98475.00;;;;2084210;28;20205;-48
2021/12/28 02:01:53;;;;;;;3.60;2.90;;;;;21.50;98471.00;;;;2086790;28;20224;-48
2021/12/28 02:02:53;;;;;;;3.23;2.73;;;;;21.50;98467.00;;;;2087056;28;20794;-48
2021/12/28 02:03:54;;;;;;;3.60;3.13;;;;;21.50;98466.00;;;;2086718;28;20669;-48
2021/12/28 02:04:54;;;;;;;4.43;2.73;;;;;21.50;98464.00;;;;2086935;28;20639;-49
2021/12/28 02:05:54;;;;;;;3.87;2.87;;;;;21.50;98470.00;;;;2087185;28;20315;-48
2021/12/28 02:06:57;;;;;;;4.50;3.03;;;;;21.50;98462.00;;;;2087089;28;20228;-49
2021/12/28 02:07:57;;;;;;;3.58;2.63;;;;;21.40;98465.00;;;;2086548;28;20289;-53
2021/12/28 02:08:58;;;;;;;5.90;2.83;;;;;21.50;98460.00;;;;2086990;28;20208;-49
2021/12/28 02:09:58;;;;;;;2.77;2.57;;;;;21.50;98466.00;;;;2087025;28;20613;-49
2021/12/28 02:10:58;;;;;;;4.57;2.77;;;;;21.50;98456.00;;;;2086020;28;20572;-50
2021/12/28 02:11:59;;;;;;;4.90;2.57;;;;;21.50;98458.00;;;;2086932;28;20581;-49
2021/12/28 02:12:59;;;;;;;3.20;2.60;;;;;21.40;98463.00;;;;2086746;28;20212;-49
2021/12/28 02:14:01;;;;;;;3.53;2.80;;;;;21.40;98457.00;;;;2087064;28;20575;-49
2021/12/28 02:15:06;;;;;;;3.10;2.50;;;;;21.50;98458.00;;;;2086749;28;20216;-49
2021/12/28 02:16:06;;;;;;;3.30;2.50;;;;;21.40;98454.00;;;;2086857;28;20262;-49
2021/12/28 02:17:06;;;;;;;5.17;2.90;;;;;21.50;98454.00;;;;2086939;28;20275;-48
2021/12/28 02:18:08;;;;;;;3.23;2.70;;;;;21.40;98448.00;;;;2086573;28;20222;-48
2021/12/28 02:19:10;;;;;;;4.07;2.75;;;;;21.40;98459.00;;;;2086968;28;20623;-48
2021/12/28 02:20:12;;;;;;;3.50;2.72;;;;;21.40;98460.00;;;;2086847;28;20728;-48
2021/12/28 02:21:13;;;;;;;5.85;2.42;;;;;21.40;98457.00;;;;2085853;28;20212;-49
2021/12/28 02:22:13;;;;;;;4.20;2.90;;;;;21.40;98454.00;;;;2086775;28;20221;-48
2021/12/28 02:23:14;;;;;;;3.20;2.70;;;;;21.40;98449.00;;;;2086937;28;20324;-48
2021/12/28 02:24:14;;;;;;;4.57;2.50;;;;;21.40;98455.00;;;;2086120;28;20255;-48
2021/12/28 02:25:14;;;;;;;5.70;2.80;;;;;21.40;98453.00;;;;2086342;28;20205;-48
2021/12/28 02:26:15;;;;;;;4.10;2.47;;;;;21.40;98448.00;;;;2086940;28;20201;-48
2021/12/28 02:27:15;;;;;;;2.60;2.40;;;;;21.40;98445.00;;;;2086958;28;20653;-48
2021/12/28 02:28:15;;;;;;;3.83;2.10;;;;;21.40;98445.00;;;;2086843;28;20240;-48
2021/12/28 02:29:16;;;;;;;4.80;2.67;;;;;21.40;98450.00;;;;2086256;28;20244;-48
2021/12/28 02:30:20;;;;;;;5.47;2.77;;;;;21.40;98449.00;;;;2084755;28;20793;-48
2021/12/28 02:31:21;;;;;;;2.95;2.05;;;;;21.40;98448.00;;;;2086388;28;20225;-48
2021/12/28 02:32:26;;;;;;;3.30;2.43;;;;;21.40;98449.00;;;;2086358;28;20269;-48
2021/12/28 02:33:27;;;;;;;3.25;2.13;;;;;21.40;98449.00;;;;2086251;28;20216;-48
2021/12/28 02:34:27;;;;;;;3.87;2.40;;;;;21.40;98450.00;;;;2086010;28;20221;-48
2021/12/28 02:35:27;;;;;;;4.60;2.30;;;;;21.40;98447.00;;;;2086881;28;20213;-48
2021/12/28 02:36:27;;;;;;;4.37;2.27;;;;;21.40;98449.00;;;;2086468;28;20216;-48
2021/12/28 02:37:28;;;;;;;3.77;2.17;;;;;21.40;98439.00;;;;2086673;28;20574;-48
2021/12/28 02:38:29;;;;;;;3.20;2.30;;;;;21.40;98438.00;;;;2086916;28;20584;-48
2021/12/28 02:39:29;;;;;;;3.40;2.43;;;;;21.40;98438.00;;;;2086784;28;20286;-49
2021/12/28 02:40:30;;;;;;;3.50;2.07;;;;;21.40;98445.00;;;;2085871;28;20487;-48
2021/12/28 02:41:30;;;;;;;6.10;2.70;;;;;21.30;98433.00;;;;2086736;28;20233;-48
2021/12/28 02:42:31;;;;;;;3.67;2.27;;;;;21.40;98438.00;;;;2086704;28;20447;-48
2021/12/28 02:43:31;;;;;;;3.43;2.00;;;;;21.40;98435.00;;;;2086614;28;20334;-48
2021/12/28 02:44:31;;;;;;;4.50;2.47;;;;;21.30;98437.00;;;;2086735;28;20209;-48
2021/12/28 02:45:34;;;;;;;2.83;2.10;;;;;21.30;98434.00;;;;2086433;28;20217;-48
2021/12/28 02:46:34;;;;;;;3.08;2.17;;;;;21.40;98430.00;;;;2085075;28;20267;-48
2021/12/28 02:47:36;;;;;;;4.33;2.43;;;;;21.40;98427.00;;;;2085894;28;20217;-48
2021/12/28 02:48:37;;;;;;;3.40;2.40;;;;;21.40;98422.00;;;;2086078;28;20239;-49
2021/12/28 02:49:38;;;;;;;4.07;2.45;;;;;21.40;98429.00;;;;2086812;28;20252;-48
2021/12/28 02:50:41;;;;;;;4.60;2.53;;;;;21.30;98425.00;;;;2085843;28;20221;-48
2021/12/28 02:51:42;;;;;;;2.75;2.15;;;;;21.30;98424.00;;;;2086914;28;20216;-48
2021/12/28 02:52:42;;;;;;;3.70;2.47;;;;;21.30;98420.00;;;;2086869;28;20772;-48
2021/12/28 02:53:43;;;;;;;3.93;2.27;;;;;21.30;98421.00;;;;2085727;28;20304;-48
2021/12/28 02:54:43;;;;;;;2.75;2.10;;;;;21.30;98418.00;;;;2085816;28;20637;-49
2021/12/28 02:55:44;;;;;;;3.53;2.10;;;;;21.30;98423.00;;;;2086005;28;20213;-48
2021/12/28 02:56:44;;;;;;;3.53;2.20;;;;;21.30;98419.00;;;;2085471;28;20212;-49
2021/12/28 02:57:49;;;;;;;3.30;2.23;;;;;21.40;98419.00;;;;2086552;28;20216;-49
2021/12/28 02:58:51;;;;;;;2.75;2.08;;;;;21.30;98413.00;;;;2086051;28;20615;-48
2021/12/28 02:59:51;;;;;;;3.58;1.80;;;;;21.30;98414.00;;;;2086081;28;20205;-49
2021/12/28 03:00:55;;;;;;;3.40;2.00;;;;;21.30;98412.00;;;;2085785;28;20213;-48
2021/12/28 03:01:55;;;;;;;4.90;2.20;;;;;21.30;98413.00;;;;2086519;28;20220;-48
2021/12/28 03:02:56;;;;;;;3.30;1.87;;;;;21.30;98415.00;;;;2086391;28;20227;-48
2021/12/28 03:04:05;;;;;;;3.77;2.33;;;;;21.30;98415.00;;;;2086650;28;21168;-48
2021/12/28 03:05:06;;;;;;;4.30;2.30;;;;;21.30;98410.00;;;;2086445;28;20217;-49
2021/12/28 03:06:07;;;;;;;3.53;2.20;;;;;21.30;98410.00;;;;2085987;28;21033;-49
2021/12/28 03:07:08;;;;;;;2.72;1.85;;;;;21.30;98415.00;;;;2082031;28;20232;-48
2021/12/28 03:08:08;;;;;;;3.70;2.20;;;;;21.30;98413.00;;;;2078512;28;20224;-49
2021/12/28 03:09:09;;;;;;;3.23;1.93;;;;;21.30;98407.00;;;;2077133;28;20217;-49
2021/12/28 03:10:09;;;;;;;3.17;2.00;;;;;21.30;98413.00;;;;2077884;28;20217;-49
2021/12/28 03:11:09;;;;;;;4.10;2.00;;;;;21.30;98418.00;;;;2077605;28;20245;-48
2021/12/28 03:12:10;;;;;;;3.00;1.90;;;;;21.30;98418.00;;;;2078384;28;20213;-49
2021/12/28 03:13:33;;;;;;;3.77;2.10;;;;;21.30;98409.00;;;;2078716;28;20267;-49
2021/12/28 03:14:34;;;;;;;3.90;2.15;;;;;21.30;98412.00;;;;2083573;28;20213;-49
2021/12/28 03:15:34;;;;;;;3.60;1.70;;;;;21.30;98412.00;;;;2086793;28;20244;-49
2021/12/28 03:16:34;;;;;;;4.27;2.30;;;;;21.20;98410.00;;;;2086152;28;20212;-48
2021/12/28 03:17:35;;;;;;;3.03;1.80;;;;;21.30;98411.00;;;;2085917;28;20608;-48
2021/12/28 03:18:35;;;;;;;3.17;2.10;;;;;21.30;98411.00;;;;2077846;28;20236;-48
2021/12/28 03:19:35;;;;;;;2.83;1.90;;;;;21.20;98399.00;;;;2077745;28;20246;-48
2021/12/28 03:20:36;;;;;;;4.70;2.13;;;;;21.30;98411.00;;;;2085674;28;20213;-48
2021/12/28 03:21:38;;;;;;;4.03;2.33;;;;;21.30;98395.00;;;;2086904;28;21008;-48
2021/12/28 03:22:38;;;;;;;5.25;2.30;;;;;21.30;98402.00;;;;2086354;28;20212;-51
2021/12/28 03:23:39;;;;;;;3.57;1.77;;;;;21.30;98404.00;;;;2086738;28;20212;-51
2021/12/28 03:24:39;;;;;;;4.30;2.03;;;;;21.30;98396.00;;;;2086672;28;20209;-49
2021/12/28 03:25:40;;;;;;;3.97;2.20;;;;;21.20;98397.00;;;;2086589;28;20248;-50
2021/12/28 03:26:40;;;;;;;3.40;1.70;;;;;21.30;98390.00;;;;2086511;28;20205;-49
2021/12/28 03:27:41;;;;;;;4.40;1.97;;;;;21.20;98390.00;;;;2086296;28;20716;-49
2021/12/28 03:28:42;;;;;;;3.80;2.00;;;;;21.30;98390.00;;;;2086102;28;20205;-49
2021/12/28 03:29:42;;;;;;;3.30;1.90;;;;;21.30;98388.00;;;;2077849;28;20198;-49
2021/12/28 03:30:43;;;;;;;3.83;2.10;;;;;21.20;98394.00;;;;2084892;28;20436;-48
2021/12/28 03:31:43;;;;;;;3.30;1.83;;;;;21.20;98390.00;;;;2086441;28;20641;-48
2021/12/28 03:32:44;;;;;;;5.50;2.10;;;;;21.20;98386.00;;;;2086571;28;20801;-48
2021/12/28 03:33:45;;;;;;;3.37;2.40;;;;;21.20;98394.00;;;;2086732;28;20266;-49
2021/12/28 03:34:46;;;;;;;3.28;2.05;;;;;21.20;98392.00;;;;2086683;28;20227;-49
2021/12/28 03:35:46;;;;;;;3.80;1.90;;;;;21.20;98393.00;;;;2085468;28;20235;-48
2021/12/28 03:36:47;;;;;;;4.50;2.27;;;;;21.20;98390.00;;;;2086580;28;20559;-49
2021/12/28 03:37:47;;;;;;;4.20;2.40;;;;;21.20;98388.00;;;;2086676;28;20299;-48
2021/12/28 03:38:47;;;;;;;5.30;2.30;;;;;21.20;98389.00;;;;2086717;28;20228;-48
2021/12/28 03:39:48;;;;;;;3.53;2.23;;;;;21.20;98387.00;;;;2086659;28;20303;-49
2021/12/28 03:40:48;;;;;;;3.53;2.10;;;;;21.20;98382.00;;;;2085001;28;20321;-48
2021/12/28 03:41:49;;;;;;;3.67;2.00;;;;;21.20;98380.00;;;;2085296;28;20247;-48
2021/12/28 03:42:49;;;;;;;5.13;2.43;;;;;21.20;98379.00;;;;2086411;28;20220;-48
2021/12/28 03:43:51;;;;;;;2.93;1.60;;;;;21.20;98378.00;;;;2086694;28;20258;-48
2021/12/28 03:44:52;;;;;;;3.03;2.00;;;;;21.20;98375.00;;;;2086639;28;20217;-48
2021/12/28 03:45:52;;;;;;;4.67;2.23;;;;;21.20;98370.00;;;;2086465;28;20225;-49
2021/12/28 03:46:52;;;;;;;3.73;1.80;;;;;21.20;98376.00;;;;2086306;28;20209;-48
2021/12/28 03:47:53;;;;;;;4.47;1.83;;;;;21.20;98374.00;;;;2086554;28;20201;-48
2021/12/28 03:48:53;;;;;;;4.00;1.97;;;;;21.20;98353.00;;;;2086936;28;20370;-48
2021/12/28 03:49:53;;;;;;;3.27;2.00;;;;;21.20;98357.00;;;;2086637;28;20301;-48
2021/12/28 03:50:54;;;;;;;3.60;2.10;;;;;21.20;98364.00;;;;2085699;28;20296;-48
2021/12/28 03:51:54;;;;;;;3.60;2.00;;;;;21.20;98362.00;;;;2085746;28;20209;-48
2021/12/28 03:52:55;;;;;;;4.57;2.07;;;;;21.20;98355.00;;;;2085961;28;20209;-48
2021/12/28 03:53:55;;;;;;;3.80;1.77;;;;;21.20;98365.00;;;;2086115;28;20771;-49
2021/12/28 03:54:55;;;;;;;3.90;2.13;;;;;21.20;98369.00;;;;2085324;28;20236;-48
2021/12/28 03:55:56;;;;;;;4.50;1.83;;;;;21.10;98356.00;;;;2086659;28;20228;-48
2021/12/28 03:56:56;;;;;;;3.27;1.70;;;;;21.20;98357.00;;;;2085651;28;20220;-48
2021/12/28 03:57:59;;;;;;;3.23;1.83;;;;;21.20;98357.00;;;;2085842;28;20205;-48
2021/12/28 03:59:00;;;;;;;3.58;1.92;;;;;21.10;98361.00;;;;2086653;28;20296;-48
2021/12/28 04:00:00;;;;;;;2.87;1.80;;;;;21.10;98360.00;;;;2086532;28;20709;-48
2021/12/28 04:01:03;;;;;;;5.13;2.10;;;;;21.20;98366.00;;;;2086786;28;20697;-48
2021/12/28 04:02:04;;;;;;;3.90;2.00;;;;;21.10;98359.00;;;;2087852;28;20576;-48
2021/12/28 04:03:04;;;;;;;4.60;2.13;;;;;21.10;98357.00;;;;2087971;28;20308;-49
2021/12/28 04:04:04;;;;;;;4.47;2.03;;;;;21.10;98361.00;;;;2088170;28;20947;-48
2021/12/28 04:05:05;;;;;;;4.00;1.90;;;;;21.20;98361.00;;;;2088010;28;20232;-48
2021/12/28 04:06:08;;;;;;;3.43;2.23;;;;;21.20;98349.00;;;;2088073;28;20222;-49
2021/12/28 04:07:12;;;;;;;3.72;2.03;;;;;21.20;98361.00;;;;2087785;28;20470;-48
2021/12/28 04:08:14;;;;;;;3.42;1.35;;;;;21.10;98357.00;;;;2087876;28;20223;-49
2021/12/28 04:09:20;;;;;;;3.80;1.73;;;;;21.10;98358.00;;;;2087054;28;20213;-49
2021/12/28 04:10:29;;;;;;;3.38;1.95;;;;;21.10;98358.00;;;;2087436;28;20209;-49
2021/12/28 04:11:29;;;;;;;3.92;2.13;;;;;21.10;98364.00;;;;2087899;28;20217;-48
2021/12/28 04:12:30;;;;;;;3.20;2.03;;;;;21.10;98357.00;;;;2087739;28;20206;-48
2021/12/28 04:13:30;;;;;;;4.43;2.40;;;;;21.10;98362.00;;;;2088086;28;20209;-48
2021/12/28 04:14:30;;;;;;;4.57;1.80;;;;;21.10;98360.00;;;;2087805;28;20209;-48
2021/12/28 04:15:31;;;;;;;5.77;2.37;;;;;21.10;98355.00;;;;2087830;28;20224;-48
2021/12/28 04:16:31;;;;;;;2.67;1.60;;;;;21.20;98346.00;;;;2088086;28;20216;-48
2021/12/28 04:17:33;;;;;;;5.00;2.20;;;;;21.20;98349.00;;;;2087837;28;20243;-48
2021/12/28 04:18:33;;;;;;;4.60;2.58;;;;;21.10;98343.00;;;;2087736;28;20692;-48
2021/12/28 04:19:34;;;;;;;4.57;2.00;;;;;21.10;98343.00;;;;2088019;28;20221;-49
2021/12/28 04:20:34;;;;;;;3.40;1.90;;;;;21.10;98336.00;;;;2087026;28;20308;-48
2021/12/28 04:21:35;;;;;;;4.60;2.03;;;;;21.10;98344.00;;;;2087160;28;20212;-48
2021/12/28 04:22:35;;;;;;;3.77;2.03;;;;;21.10;98338.00;;;;2086169;28;20287;-49
2021/12/28 04:23:35;;;;;;;4.60;1.87;;;;;21.00;98346.00;;;;2088069;28;20216;-48
2021/12/28 04:24:36;;;;;;;4.53;2.17;;;;;21.10;98347.00;;;;2087908;28;20213;-48
2021/12/28 04:25:36;;;;;;;6.23;2.20;;;;;21.10;98345.00;;;;2087674;28;20221;-47
2021/12/28 04:26:36;;;;;;;2.63;1.60;;;;;21.10;98343.00;;;;2087291;28;20227;-48
2021/12/28 04:27:37;;;;;;;4.60;2.10;;;;;21.10;98341.00;;;;2087286;28;20227;-48
2021/12/28 04:28:37;;;;;;;3.93;1.93;;;;;21.10;98343.00;;;;2087820;28;20229;-48
2021/12/28 04:29:37;;;;;;;4.40;1.80;;;;;21.10;98346.00;;;;2080610;28;20222;-48
2021/12/28 04:30:38;;;;;;;5.30;2.90;;;;;21.10;98346.00;;;;2078215;28;20271;-48
2021/12/28 04:31:38;;;;;;;5.30;2.30;;;;;21.10;98343.00;;;;2079710;28;20709;-48
2021/12/28 04:32:38;;;;;;;4.50;2.30;;;;;21.10;98346.00;;;;2079501;28;20221;-48
2021/12/28 04:33:39;;;;;;;4.03;2.00;;;;;21.10;98345.00;;;;2079376;28;20213;-48
2021/12/28 04:34:39;;;;;;;3.20;2.00;;;;;21.10;98334.00;;;;2079649;28;20228;-48
2021/12/28 04:35:40;;;;;;;4.00;1.97;;;;;21.10;98330.00;;;;2078768;28;20212;-49
2021/12/28 04:36:40;;;;;;;3.47;1.90;;;;;21.10;98340.00;;;;2079075;28;20209;-48
2021/12/28 04:37:40;;;;;;;5.27;2.00;;;;;21.10;98335.00;;;;2079474;28;20259;-48
2021/12/28 04:38:42;;;;;;;4.87;2.30;;;;;21.10;98333.00;;;;2079712;28;20671;-49
2021/12/28 04:39:42;;;;;;;2.97;1.55;;;;;21.00;98333.00;;;;2079731;28;20300;-48
2021/12/28 04:40:43;;;;;;;5.27;1.93;;;;;21.00;98326.00;;;;2078461;28;20216;-48
2021/12/28 04:41:43;;;;;;;3.90;1.80;;;;;21.00;98325.00;;;;2079350;28;20292;-48
2021/12/28 04:42:43;;;;;;;3.87;1.83;;;;;21.00;98320.00;;;;2079293;28;20209;-48
2021/12/28 04:43:46;;;;;;;3.53;1.60;;;;;21.10;98324.00;;;;2079255;28;20221;-48
2021/12/28 04:44:49;;;;;;;4.85;1.98;;;;;21.00;98310.00;;;;2079384;28;20216;-48
2021/12/28 04:45:50;;;;;;;5.07;1.92;;;;;21.00;98318.00;;;;2071068;28;20244;-53
2021/12/28 04:46:52;;;;;;;3.77;1.87;;;;;21.10;98319.00;;;;2071037;28;20699;-50
2021/12/28 04:47:53;;;;;;;3.72;1.80;;;;;21.00;98318.00;;;;2071121;28;20210;-48
2021/12/28 04:48:53;;;;;;;5.77;1.83;;;;;21.10;98315.00;;;;2071265;28;20217;-48
2021/12/28 04:49:53;;;;;;;3.80;1.83;;;;;21.00;98302.00;;;;2071025;28;20214;-49
2021/12/28 04:50:54;;;;;;;4.23;1.80;;;;;21.10;98313.00;;;;2070102;28;20245;-49
2021/12/28 04:51:54;;;;;;;4.60;2.10;;;;;21.00;98315.00;;;;2070893;28;20652;-50
2021/12/28 04:52:57;;;;;;;3.97;1.67;;;;;21.00;98306.00;;;;2071316;28;20715;-49
2021/12/28 04:54:00;;;;;;;3.75;1.90;;;;;21.00;98318.00;;;;2075985;28;20296;-48
2021/12/28 04:55:00;;;;;;;4.65;2.00;;;;;21.00;98312.00;;;;2078256;28;20642;-49
2021/12/28 04:56:01;;;;;;;4.27;1.93;;;;;21.00;98312.00;;;;2079377;28;20209;-49
2021/12/28 04:57:01;;;;;;;4.10;1.60;;;;;21.00;98308.00;;;;2071004;28;20236;-48
2021/12/28 04:58:01;;;;;;;5.07;2.10;;;;;21.00;98306.00;;;;2078495;28;20351;-48
2021/12/28 04:59:02;;;;;;;5.70;1.57;;;;;21.00;98307.00;;;;2078579;28;20208;-49
2021/12/28 05:00:05;;;;;;;3.30;2.10;;;;;21.00;98302.00;;;;2079334;28;20710;-48
2021/12/28 05:01:05;;;;;;;2.92;1.70;;;;;21.00;98306.00;;;;2078440;28;20260;-49
2021/12/28 05:02:05;;;;;;;4.97;1.90;;;;;21.00;98303.00;;;;2078842;28;20314;-48
2021/12/28 05:03:06;;;;;;;4.37;2.00;;;;;21.00;98300.00;;;;2078805;28;20214;-48
2021/12/28 05:04:06;;;;;;;3.30;1.50;;;;;21.00;98308.00;;;;2079352;28;20220;-48
2021/12/28 05:05:08;;;;;;;3.93;2.10;;;;;21.00;98309.00;;;;2079404;28;20213;-49
2021/12/28 05:06:08;;;;;;;4.55;1.52;;;;;21.00;98304.00;;;;2079475;28;20213;-49
2021/12/28 05:07:08;;;;;;;4.37;2.10;;;;;21.00;98305.00;;;;2079346;28;20714;-48
2021/12/28 05:08:11;;;;;;;6.23;2.17;;;;;21.00;98303.00;;;;2079291;28;20964;-48